createdAt,value
2019-04-25T03:45:56.171Z,11.00
2019-04-25T03:48:25.228Z,10.90
2019-04-25T03:50:54.195Z,10.80
2019-04-25T03:53:23.969Z,10.80
2019-04-25T03:55:54.049Z,10.80
2019-04-25T03:58:22.096Z,10.80
2019-04-25T04:00:52.312Z,10.60
2019-04-25T04:03:21.260Z,10.40
2019-04-25T04:05:49.503Z,10.40
2019-04-25T04:08:18.436Z,10.70
2019-04-25T04:10:46.520Z,10.60
2019-04-25T04:13:15.760Z,10.30
2019-04-25T04:15:44.790Z,10.60
2019-04-25T04:18:26.538Z,10.60
2019-04-25T04:21:11.110Z,10.60
2019-04-25T04:23:40.828Z,10.30
2019-04-25T04:26:09.539Z,10.20
2019-04-25T04:28:38.455Z,10.50
2019-04-25T04:31:08.300Z,10.30
2019-04-25T04:33:36.381Z,10.20
2019-04-25T04:36:05.312Z,10.00
2019-04-25T04:38:34.428Z,10.20
2019-04-25T04:41:03.866Z,10.30
2019-04-25T04:43:34.275Z,10.40
2019-04-25T04:46:03.992Z,10.40
2019-04-25T04:48:34.239Z,10.30
2019-04-25T04:51:03.408Z,10.20
2019-04-25T04:53:31.533Z,10.40
2019-04-25T04:56:00.592Z,10.30
2019-04-25T04:58:28.662Z,10.30
2019-04-25T05:00:57.596Z,10.40
2019-04-25T05:03:27.229Z,10.30
2019-04-25T05:05:56.934Z,10.40
2019-04-25T05:08:26.546Z,10.40
2019-04-25T05:10:57.343Z,10.60
2019-04-25T05:13:25.223Z,10.60
2019-04-25T05:15:54.199Z,10.60
2019-04-25T05:18:34.530Z,10.70
2019-04-25T05:20:51.901Z,11.00
2019-04-25T05:23:19.919Z,11.40
2019-04-25T05:25:47.958Z,11.50
2019-04-25T05:28:17.326Z,11.70
2019-04-25T05:30:53.540Z,11.80
2019-04-25T05:33:22.712Z,12.00
2019-04-25T05:35:51.409Z,12.20
2019-04-25T05:38:20.104Z,12.30
2019-04-25T05:41:04.910Z,12.40
2019-04-25T05:43:33.570Z,12.40
2019-04-25T05:46:03.271Z,12.40
2019-04-25T05:48:31.413Z,12.70
2019-04-25T05:50:59.492Z,13.00
2019-04-25T05:53:27.525Z,13.20
2019-04-25T05:55:55.585Z,13.10
2019-04-25T05:58:25.452Z,13.20
2019-04-25T06:00:54.299Z,13.20
2019-04-25T06:03:24.870Z,13.30
2019-04-25T06:05:53.362Z,13.30
2019-04-25T06:08:25.472Z,13.70
2019-04-25T06:10:54.430Z,13.80
2019-04-25T06:13:33.332Z,13.70
2019-04-25T06:16:03.535Z,13.60
2019-04-25T06:18:35.997Z,13.90
2019-04-25T06:21:04.591Z,13.70
2019-04-25T06:23:50.591Z,14.10
2019-04-25T06:26:26.398Z,14.20
2019-04-25T06:28:53.601Z,13.90
2019-04-25T06:31:19.721Z,13.90
2019-04-25T06:33:48.153Z,13.90
2019-04-25T06:36:16.260Z,14.40
2019-04-25T06:38:44.378Z,14.40
2019-04-25T06:41:13.476Z,14.40
2019-04-25T06:43:44.249Z,14.80
2019-04-25T06:46:16.613Z,15.10
2019-04-25T06:48:53.376Z,15.20
2019-04-25T06:51:25.295Z,15.20
2019-04-25T06:53:53.465Z,15.20
2019-04-25T06:56:22.506Z,15.40
2019-04-25T06:58:51.217Z,15.50
2019-04-25T07:01:19.305Z,15.50
2019-04-25T07:03:47.360Z,15.70
2019-04-25T07:06:15.418Z,15.80
2019-04-25T07:08:46.270Z,15.90
2019-04-25T07:11:14.485Z,15.90
2019-04-25T07:13:43.820Z,15.90
2019-04-25T07:16:13.382Z,16.10
2019-04-25T07:18:41.613Z,16.10
2019-04-25T07:21:09.611Z,16.20
2019-04-25T07:23:38.248Z,16.30
2019-04-25T07:26:07.982Z,16.30
2019-04-25T07:28:53.939Z,16.30
2019-04-25T07:31:25.001Z,16.40
2019-04-25T07:33:57.460Z,16.50
2019-04-25T07:36:25.800Z,16.50
2019-04-25T07:39:05.153Z,16.50
2019-04-25T07:41:25.025Z,16.50
2019-04-25T07:43:53.361Z,16.60
2019-04-25T07:46:21.486Z,16.60
2019-04-25T07:48:49.484Z,16.70
2019-04-25T07:51:17.533Z,16.70
2019-04-25T07:53:45.597Z,16.70
2019-04-25T07:56:14.255Z,16.60
2019-04-25T07:58:50.560Z,16.70
2019-04-25T08:01:14.015Z,16.80
2019-04-25T08:03:43.722Z,16.90
2019-04-25T08:06:13.755Z,17.10
2019-04-25T08:08:43.425Z,17.10
2019-04-25T08:11:11.546Z,17.20
2019-04-25T08:13:42.261Z,17.20
2019-04-25T08:16:14.459Z,17.10
2019-04-25T08:18:43.390Z,17.20
2019-04-25T08:21:11.657Z,17.30
2019-04-25T08:23:39.707Z,17.50
2019-04-25T08:26:07.698Z,17.60
2019-04-25T08:28:49.560Z,17.60
2019-04-25T08:31:05.748Z,17.80
2019-04-25T08:33:34.543Z,17.90
2019-04-25T08:36:08.940Z,18.00
2019-04-25T08:38:34.748Z,18.10
2019-04-25T08:41:04.124Z,18.20
2019-04-25T08:43:32.544Z,18.20
2019-04-25T08:46:01.949Z,18.30
2019-04-25T08:48:33.645Z,18.20
2019-04-25T08:51:05.713Z,18.30
2019-04-25T08:53:36.520Z,18.40
2019-04-25T08:56:06.874Z,18.50
2019-04-25T08:58:39.207Z,18.40
2019-04-25T09:01:20.675Z,18.50
2019-04-25T09:04:04.962Z,18.60
2019-04-25T09:06:33.269Z,18.70
2019-04-25T09:09:01.787Z,18.70
2019-04-25T09:11:32.367Z,18.80
2019-04-25T09:14:00.241Z,18.80
2019-04-25T09:16:28.270Z,19.00
2019-04-25T09:18:56.257Z,19.00
2019-04-25T09:21:24.303Z,19.00
2019-04-25T09:23:53.531Z,19.00
2019-04-25T09:26:21.658Z,19.10
2019-04-25T09:28:49.657Z,19.10
2019-04-25T09:31:17.756Z,19.20
2019-04-25T09:33:46.703Z,19.40
2019-04-25T09:36:14.813Z,19.50
2019-04-25T09:38:46.660Z,19.60
2019-04-25T09:41:13.874Z,19.70
2019-04-25T09:43:42.244Z,19.80
2019-04-25T09:46:17.995Z,19.90
2019-04-25T09:49:04.268Z,20.00
2019-04-25T09:51:34.009Z,20.10
2019-04-25T09:54:19.797Z,20.20
2019-04-25T09:56:53.254Z,20.30
2019-04-25T09:59:28.136Z,20.40
2019-04-25T10:01:52.525Z,20.50
2019-04-25T10:04:22.888Z,20.60
2019-04-25T10:06:50.245Z,20.70
2019-04-25T10:09:18.565Z,20.70
2019-04-25T10:11:46.632Z,20.80
2019-04-25T10:14:34.288Z,20.90
2019-04-25T10:17:03.679Z,21.00
2019-04-25T10:19:31.845Z,21.10
2019-04-25T10:22:00.087Z,21.10
2019-04-25T10:24:28.056Z,21.30
2019-04-25T10:26:56.071Z,21.40
2019-04-25T10:29:24.119Z,21.40
2019-04-25T10:31:52.113Z,21.40
2019-04-25T10:34:20.110Z,21.40
2019-04-25T10:36:48.941Z,21.40
2019-04-25T10:39:17.042Z,21.60
2019-04-25T10:41:46.689Z,21.70
2019-04-25T10:44:14.938Z,21.70
2019-04-25T10:46:45.724Z,21.80
2019-04-25T10:49:14.455Z,21.80
2019-04-25T10:51:44.349Z,21.90
2019-04-25T10:54:14.427Z,22.10
2019-04-25T10:56:44.510Z,22.10
2019-04-25T10:59:12.033Z,22.20
2019-04-25T11:01:42.386Z,22.20
2019-04-25T11:04:24.513Z,22.20
2019-04-25T11:06:55.131Z,22.30
2019-04-25T11:09:24.649Z,22.40
2019-04-25T11:11:52.873Z,22.50
2019-04-25T11:14:21.195Z,22.70
2019-04-25T11:16:49.193Z,22.70
2019-04-25T11:19:17.264Z,22.80
2019-04-25T11:21:46.277Z,23.00
2019-04-25T11:24:14.796Z,23.10
2019-04-25T11:26:46.613Z,23.20
2019-04-25T11:29:13.317Z,23.20
2019-04-25T11:31:45.746Z,23.30
2019-04-25T11:34:14.870Z,23.40
2019-04-25T11:36:43.000Z,23.40
2019-04-25T11:39:32.049Z,23.30
2019-04-25T11:42:00.345Z,23.20
2019-04-25T11:44:28.475Z,23.30
2019-04-25T11:46:56.538Z,23.30
2019-04-25T11:49:24.524Z,23.40
2019-04-25T11:51:52.574Z,23.60
2019-04-25T11:54:20.621Z,23.70
2019-04-25T11:56:48.681Z,23.80
2019-04-25T11:59:16.696Z,23.90
2019-04-25T12:01:45.355Z,23.90
2019-04-25T12:04:14.871Z,24.00
2019-04-25T12:06:47.057Z,24.00
2019-04-25T12:09:13.900Z,24.00
2019-04-25T12:11:44.592Z,24.00
2019-04-25T12:14:12.481Z,24.10
2019-04-25T12:16:40.563Z,24.20
2019-04-25T12:19:08.610Z,24.20
2019-04-25T12:21:36.621Z,24.30
2019-04-25T12:24:05.893Z,24.40
2019-04-25T12:26:34.213Z,24.30
2019-04-25T12:29:04.404Z,24.40
2019-04-25T12:31:34.069Z,24.50
2019-04-25T12:34:03.508Z,24.50
2019-04-25T12:36:31.642Z,24.50
2019-04-25T12:38:59.646Z,24.50
2019-04-25T12:41:27.701Z,24.50
2019-04-25T12:44:08.734Z,24.70
2019-04-25T12:46:37.493Z,24.70
2019-04-25T12:49:05.502Z,24.80
2019-04-25T12:51:33.485Z,24.90
2019-04-25T12:54:01.489Z,25.00
2019-04-25T12:56:29.537Z,25.00
2019-04-25T12:58:57.536Z,25.10
2019-04-25T13:01:25.580Z,25.20
2019-04-25T13:03:54.342Z,25.30
2019-04-25T13:06:23.856Z,25.20
2019-04-25T13:08:51.928Z,25.20
2019-04-25T13:11:19.914Z,25.30
2019-04-25T13:13:47.917Z,25.30
2019-04-25T13:16:15.917Z,25.40
2019-04-25T13:18:43.922Z,25.40
2019-04-25T13:21:13.388Z,25.30
2019-04-25T13:23:41.718Z,25.40
2019-04-25T13:26:09.821Z,25.50
2019-04-25T13:28:42.143Z,25.50
2019-04-25T13:31:17.591Z,25.60
2019-04-25T13:33:47.206Z,25.50
2019-04-25T13:36:19.541Z,25.50
2019-04-25T13:38:47.537Z,25.40
2019-04-25T13:41:15.539Z,25.40
2019-04-25T13:43:43.562Z,25.40
2019-04-25T13:46:15.828Z,25.40
2019-04-25T13:48:42.875Z,25.40
2019-04-25T13:51:11.205Z,25.50
2019-04-25T13:53:39.184Z,25.70
2019-04-25T13:56:07.341Z,25.60
2019-04-25T13:58:35.462Z,25.50
2019-04-25T14:01:12.846Z,25.30
2019-04-25T14:03:35.612Z,25.40
2019-04-25T14:06:04.521Z,25.40
2019-04-25T14:08:33.561Z,25.60
2019-04-25T14:11:01.754Z,25.50
2019-04-25T14:13:29.897Z,25.70
2019-04-25T14:15:59.598Z,25.80
2019-04-25T14:18:35.137Z,25.90
2019-04-25T14:21:04.840Z,25.90
2019-04-25T14:23:34.526Z,26.00
2019-04-25T14:26:02.582Z,25.90
2019-04-25T14:28:31.806Z,25.90
2019-04-25T14:31:00.426Z,25.70
2019-04-25T14:33:28.699Z,25.70
2019-04-25T14:35:56.773Z,25.80
2019-04-25T14:38:25.620Z,25.90
2019-04-25T14:40:54.566Z,26.00
2019-04-25T14:43:22.689Z,25.70
2019-04-25T14:45:50.668Z,25.80
2019-04-25T14:48:18.735Z,25.80
2019-04-25T14:50:46.765Z,25.90
2019-04-25T14:53:14.760Z,26.00
2019-04-25T14:55:44.458Z,25.70
2019-04-25T14:58:14.289Z,25.70
2019-04-25T15:00:44.112Z,25.80
2019-04-25T15:03:12.089Z,25.90
2019-04-25T15:05:42.165Z,25.90
2019-04-25T15:08:09.789Z,25.80
2019-04-25T15:10:37.799Z,25.90
2019-04-25T15:13:07.448Z,25.80
2019-04-25T15:15:35.517Z,25.70
2019-04-25T15:18:03.493Z,25.50
2019-04-25T15:20:32.330Z,25.60
2019-04-25T15:23:00.369Z,25.70
2019-04-25T15:25:28.467Z,25.60
2019-04-25T15:27:56.482Z,25.80
2019-04-25T15:30:29.445Z,25.80
2019-04-25T15:32:57.603Z,25.90
2019-04-25T15:35:27.997Z,25.80
2019-04-25T15:38:09.539Z,25.50
2019-04-25T15:40:44.929Z,25.50
2019-04-25T15:43:14.554Z,25.50
2019-04-25T15:45:47.080Z,25.50
2019-04-25T15:48:15.075Z,25.60
2019-04-25T15:50:43.260Z,25.80
2019-04-25T15:53:11.257Z,25.70
2019-04-25T15:55:39.276Z,25.80
2019-04-25T15:58:07.348Z,25.80
2019-04-25T16:00:35.903Z,25.80
2019-04-25T16:03:04.533Z,25.80
2019-04-25T16:05:33.438Z,25.70
2019-04-25T16:08:01.450Z,25.70
2019-04-25T16:10:29.887Z,25.80
2019-04-25T16:12:58.011Z,25.70
2019-04-25T16:15:27.586Z,25.50
2019-04-25T16:17:55.932Z,25.40
2019-04-25T16:20:24.212Z,25.60
2019-04-25T16:22:52.217Z,25.70
2019-04-25T16:25:20.269Z,25.40
2019-04-25T16:27:48.363Z,25.50
2019-04-25T16:30:16.786Z,25.30
2019-04-25T16:32:45.002Z,25.30
2019-04-25T16:35:13.168Z,25.40
2019-04-25T16:37:41.741Z,25.60
2019-04-25T16:40:10.779Z,25.50
2019-04-25T16:42:39.778Z,25.80
2019-04-25T16:45:08.160Z,26.80
2019-04-25T16:47:37.322Z,26.70
2019-04-25T16:50:07.000Z,26.40
2019-04-25T16:52:35.849Z,26.30
2019-04-25T16:55:05.312Z,26.20
2019-04-25T16:57:33.376Z,26.10
2019-04-25T17:00:02.959Z,26.10
2019-04-25T17:02:35.576Z,26.00
2019-04-25T17:05:01.274Z,26.00
2019-04-25T17:07:30.411Z,25.70
2019-04-25T17:09:58.703Z,25.70
2019-04-25T17:12:27.469Z,25.70
2019-04-25T17:14:59.819Z,25.70
2019-04-25T17:17:29.567Z,25.50
2019-04-25T17:20:15.249Z,25.30
2019-04-25T17:22:44.917Z,25.30
2019-04-25T17:25:13.477Z,25.40
2019-04-25T17:27:42.029Z,25.50
2019-04-25T17:30:10.533Z,25.80
2019-04-25T17:32:55.045Z,25.80
2019-04-25T17:35:30.860Z,25.90
2019-04-25T17:38:04.432Z,25.80
2019-04-25T17:40:33.898Z,25.90
2019-04-25T17:43:10.767Z,26.00
2019-04-25T17:45:33.372Z,26.00
2019-04-25T17:48:01.509Z,25.90
2019-04-25T17:50:29.487Z,25.70
2019-04-25T17:52:57.479Z,25.50
2019-04-25T17:55:25.474Z,25.50
2019-04-25T17:57:53.594Z,25.30
2019-04-25T18:00:26.717Z,25.30
2019-04-25T18:02:58.991Z,25.30
2019-04-25T18:05:24.477Z,25.20
2019-04-25T18:07:52.620Z,25.20
2019-04-25T18:10:20.962Z,25.30
2019-04-25T18:12:48.955Z,25.20
2019-04-25T18:15:18.592Z,25.10
2019-04-25T18:17:46.660Z,25.20
2019-04-25T18:20:19.298Z,24.80
2019-04-25T18:22:48.953Z,24.60
2019-04-25T18:25:18.674Z,24.60
2019-04-25T18:27:51.221Z,24.50
2019-04-25T18:30:19.222Z,24.50
2019-04-25T18:33:10.351Z,24.40
2019-04-25T18:35:35.519Z,24.10
2019-04-25T18:38:06.421Z,24.00
2019-04-25T18:40:44.056Z,23.90
2019-04-25T18:43:13.360Z,23.40
2019-04-25T18:45:42.995Z,23.40
2019-04-25T18:48:11.003Z,23.60
2019-04-25T18:50:39.246Z,23.40
2019-04-25T18:53:09.804Z,23.40
2019-04-25T18:55:54.994Z,23.50
2019-04-25T18:58:33.839Z,23.30
2019-04-25T19:01:20.336Z,23.00
2019-04-25T19:03:55.543Z,22.80
2019-04-25T19:06:25.706Z,23.10
2019-04-25T19:08:53.708Z,22.90
2019-04-25T19:11:22.789Z,23.00
2019-04-25T19:13:51.697Z,22.70
2019-04-25T19:16:19.824Z,23.00
2019-04-25T19:18:48.049Z,22.80
2019-04-25T19:21:16.167Z,22.70
2019-04-25T19:23:46.515Z,22.30
2019-04-25T19:26:13.947Z,21.90
2019-04-25T19:28:45.229Z,22.00
2019-04-25T19:33:50.586Z,22.00
2019-04-25T19:36:19.347Z,21.70
2019-04-25T19:38:50.137Z,21.80
2019-04-25T19:41:28.482Z,21.40
2019-04-25T19:44:14.523Z,21.20
2019-04-25T19:46:43.091Z,21.00
2019-04-25T19:49:12.086Z,20.80
2019-04-25T19:51:41.800Z,20.70
2019-04-25T19:54:12.843Z,20.50
2019-04-25T19:56:43.656Z,20.30
2019-04-25T19:59:12.640Z,20.00
2019-04-25T20:04:56.767Z,20.10
2019-04-25T20:14:21.277Z,19.40
2019-04-25T20:20:04.401Z,18.90
2019-04-25T20:22:34.130Z,18.40
2019-04-25T20:28:48.780Z,18.40
2019-04-25T20:31:21.056Z,18.20
2019-04-25T20:34:04.182Z,18.20
2019-04-25T20:37:02.471Z,18.20
2019-04-25T20:39:18.601Z,18.10
2019-04-25T20:42:00.616Z,17.90
2019-04-25T20:44:36.582Z,17.70
2019-04-25T20:47:06.901Z,17.60
2019-04-25T20:49:35.950Z,17.70
2019-04-25T20:52:04.710Z,17.60
2019-04-25T20:54:32.999Z,17.40
2019-04-25T20:57:01.893Z,17.30
2019-04-25T20:59:31.349Z,17.40
2019-04-25T21:01:59.669Z,17.20
2019-04-25T21:04:41.378Z,17.00
2019-04-25T21:07:09.721Z,16.90
2019-04-25T21:09:42.541Z,16.70
2019-04-25T21:12:10.892Z,16.70
2019-04-25T21:14:52.804Z,16.60
2019-04-25T21:17:26.692Z,16.90
2019-04-25T21:19:56.496Z,17.10
2019-04-25T21:22:24.736Z,16.70
2019-04-25T21:24:53.559Z,16.60
2019-04-25T21:27:22.105Z,16.40
2019-04-25T21:29:51.993Z,16.50
2019-04-25T21:32:21.290Z,16.50
2019-04-25T21:34:49.523Z,16.10
2019-04-25T21:37:18.700Z,16.10
2019-04-25T21:39:48.610Z,16.10
2019-04-25T21:42:24.804Z,15.80
2019-04-25T21:44:54.049Z,15.70
2019-04-25T21:47:22.161Z,15.70
2019-04-25T21:49:50.492Z,15.70
2019-04-25T21:52:18.757Z,15.60
2019-04-25T21:54:48.611Z,15.50
2019-04-25T21:57:17.766Z,15.50
2019-04-25T21:59:46.037Z,15.50
2019-04-25T22:02:14.131Z,15.60
2019-04-25T22:04:42.753Z,15.40
2019-04-25T22:07:12.176Z,15.30
2019-04-25T22:09:40.339Z,15.20
2019-04-25T22:12:10.157Z,15.20
2019-04-25T22:14:38.167Z,15.40
2019-04-25T22:17:06.805Z,15.60
2019-04-25T22:19:35.079Z,15.50
2019-04-25T22:22:03.306Z,15.80
2019-04-25T22:24:31.356Z,15.60
2019-04-25T22:27:00.967Z,15.60
2019-04-25T22:29:28.958Z,15.70
2019-04-25T22:31:59.367Z,15.80
2019-04-25T22:34:32.073Z,15.70
2019-04-25T22:37:00.134Z,16.00
2019-04-25T22:39:28.115Z,16.00
2019-04-25T22:41:56.461Z,15.90
2019-04-25T22:44:24.709Z,15.70
2019-04-25T22:46:52.959Z,15.60
2019-04-25T22:49:20.944Z,15.70
2019-04-25T22:51:48.920Z,15.70
2019-04-25T22:54:17.195Z,15.80
2019-04-25T22:56:45.196Z,15.80
2019-04-25T22:59:13.461Z,15.60
